METAR Data
IDs: Format: Raw Decoded Include TAF

Data at: 1430 UTC 10 Jul 2020

KDMN 101353Z AUTO VRB03KT 10SM CLR 27/08 A3012 RMK AO2 SLP104 T02720078

KDMN 101120Z 1012/1112 VRB06KT P6SM SCT150
  FM101700 07011KT P6SM FEW110
  FM102100 10006KT P6SM SCT120 SCT250